Tavares, Florida
Current Conditions -  °F | °C
As of 8:53 PM on Friday 21 Nov 2014 (Local Time) from KLEE Reporting Station
Scattered Clouds Scattered Clouds  
Wind Chill: 60°   Ceiling: Unl
Heat Index: 60°   Visibility: 10mi
Dew Point: 52°   Wind: 8mph
Humidity: 75%   Direction: 40°NE
Pressure: 30.3"   Gusts: NA
Location:  28.8°N, 81.73°W
Report Text: KLEE 220153Z AUTO 04007KT 10SM SCT110 16/11 A3030 RMK AO2 SLP258 T01560111
Loading
Personal Weather Stations






























Interactive Weather Map New forecast layout! Learn more

10-Day Weather Forecast

Advertisements
Track Severe Weather on mobile